sensor_id;sensor_type;location;lat;lon;timestamp;pressure;altitude;pressure_sealevel;temperature;humidity
62103;BME280;48077;48.104;11.702;2022-09-02T00:01:52;95617.53;;;10.26;89.26
62103;BME280;48077;48.104;11.702;2022-09-02T00:04:19;95609.78;;;10.24;88.54
62103;BME280;48077;48.104;11.702;2022-09-02T00:06:44;95606.41;;;10.17;88.50
62103;BME280;48077;48.104;11.702;2022-09-02T00:09:09;95609.50;;;10.14;88.83
62103;BME280;48077;48.104;11.702;2022-09-02T00:11:35;95601.50;;;10.14;88.79
62103;BME280;48077;48.104;11.702;2022-09-02T00:14:02;95602.34;;;10.15;88.62
62103;BME280;48077;48.104;11.702;2022-09-02T00:16:25;95601.50;;;10.14;88.37
62103;BME280;48077;48.104;11.702;2022-09-02T00:18:49;95595.69;;;10.05;87.60
62103;BME280;48077;48.104;11.702;2022-09-02T00:21:14;95601.56;;;9.96;88.14
62103;BME280;48077;48.104;11.702;2022-09-02T00:23:39;95590.88;;;9.84;88.25
62103;BME280;48077;48.104;11.702;2022-09-02T00:26:03;95599.78;;;9.89;88.45
62103;BME280;48077;48.104;11.702;2022-09-02T00:28:26;95593.06;;;9.87;88.41
62103;BME280;48077;48.104;11.702;2022-09-02T00:30:49;95592.72;;;9.83;87.71
62103;BME280;48077;48.104;11.702;2022-09-02T00:33:13;95586.75;;;9.69;87.87
62103;BME280;48077;48.104;11.702;2022-09-02T00:35:37;95592.16;;;9.63;88.93
62103;BME280;48077;48.104;11.702;2022-09-02T00:38:01;95565.66;;;9.38;88.67
62103;BME280;48077;48.104;11.702;2022-09-02T00:40:25;95589.66;;;9.49;88.84
62103;BME280;48077;48.104;11.702;2022-09-02T00:42:50;95589.53;;;9.44;89.62
62103;BME280;48077;48.104;11.702;2022-09-02T00:45:13;95560.84;;;9.28;90.10
62103;BME280;48077;48.104;11.702;2022-09-02T00:47:37;95587.28;;;9.41;90.08
62103;BME280;48077;48.104;11.702;2022-09-02T00:50:04;95585.09;;;9.38;90.96
62103;BME280;48077;48.104;11.702;2022-09-02T00:52:29;95581.25;;;9.34;90.86
62103;BME280;48077;48.104;11.702;2022-09-02T00:55:00;95580.66;;;9.32;90.72
62103;BME280;48077;48.104;11.702;2022-09-02T00:57:29;95584.56;;;9.29;90.83
62103;BME280;48077;48.104;11.702;2022-09-02T01:00:10;95579.91;;;9.25;91.09
62103;BME280;48077;48.104;11.702;2022-09-02T01:02:36;95578.72;;;9.21;90.61
62103;BME280;48077;48.104;11.702;2022-09-02T01:05:00;95570.59;;;9.16;91.82
62103;BME280;48077;48.104;11.702;2022-09-02T01:07:27;95579.97;;;9.18;91.10
62103;BME280;48077;48.104;11.702;2022-09-02T01:09:53;95578.94;;;9.19;91.99
62103;BME280;48077;48.104;11.702;2022-09-02T01:12:20;95572.44;;;9.15;91.47
62103;BME280;48077;48.104;11.702;2022-09-02T01:14:44;95573.53;;;9.07;91.58
62103;BME280;48077;48.104;11.702;2022-09-02T01:17:08;95578.88;;;9.07;91.97
62103;BME280;48077;48.104;11.702;2022-09-02T01:19:40;95571.38;;;8.98;91.93
62103;BME280;48077;48.104;11.702;2022-09-02T01:22:35;95576.06;;;9.02;91.78
62103;BME280;48077;48.104;11.702;2022-09-02T01:25:14;95579.16;;;8.99;91.95
62103;BME280;48077;48.104;11.702;2022-09-02T01:27:37;95572.06;;;8.93;92.08
62103;BME280;48077;48.104;11.702;2022-09-02T01:30:02;95573.91;;;8.93;92.53
62103;BME280;48077;48.104;11.702;2022-09-02T01:32:27;95569.38;;;8.93;92.50
62103;BME280;48077;48.104;11.702;2022-09-02T01:34:51;95574.91;;;8.91;92.54
62103;BME280;48077;48.104;11.702;2022-09-02T01:37:15;95567.19;;;8.90;92.54
62103;BME280;48077;48.104;11.702;2022-09-02T01:39:38;95573.72;;;8.87;92.50
62103;BME280;48077;48.104;11.702;2022-09-02T01:42:02;95551.94;;;8.79;93.13
62103;BME280;48077;48.104;11.702;2022-09-02T01:44:25;95564.34;;;8.85;92.85
62103;BME280;48077;48.104;11.702;2022-09-02T01:46:52;95559.28;;;8.83;92.72
62103;BME280;48077;48.104;11.702;2022-09-02T01:49:15;95538.91;;;8.70;92.66
62103;BME280;48077;48.104;11.702;2022-09-02T01:51:39;95552.09;;;8.84;93.04
62103;BME280;48077;48.104;11.702;2022-09-02T01:54:03;95558.63;;;8.88;93.50
62103;BME280;48077;48.104;11.702;2022-09-02T01:56:27;95558.38;;;8.89;93.42
62103;BME280;48077;48.104;11.702;2022-09-02T01:58:50;95557.13;;;8.92;94.25
62103;BME280;48077;48.104;11.702;2022-09-02T02:01:13;95554.81;;;8.96;94.44
62103;BME280;48077;48.104;11.702;2022-09-02T02:03:38;95544.06;;;8.90;95.01
62103;BME280;48077;48.104;11.702;2022-09-02T02:06:10;95550.94;;;8.98;94.53
62103;BME280;48077;48.104;11.702;2022-09-02T02:08:35;95544.16;;;9.02;95.07
62103;BME280;48077;48.104;11.702;2022-09-02T02:10:58;95555.09;;;9.13;94.54
62103;BME280;48077;48.104;11.702;2022-09-02T02:13:23;95542.72;;;9.18;94.52
62103;BME280;48077;48.104;11.702;2022-09-02T02:15:47;95540.91;;;9.19;93.93
62103;BME280;48077;48.104;11.702;2022-09-02T02:18:10;95541.81;;;9.24;93.87
62103;BME280;48077;48.104;11.702;2022-09-02T02:20:34;95534.06;;;9.23;93.89
62103;BME280;48077;48.104;11.702;2022-09-02T02:22:58;95536.78;;;9.35;94.02
62103;BME280;48077;48.104;11.702;2022-09-02T02:25:21;95546.41;;;9.36;94.74
62103;BME280;48077;48.104;11.702;2022-09-02T02:27:45;95539.03;;;9.38;94.22
62103;BME280;48077;48.104;11.702;2022-09-02T02:30:09;95544.94;;;9.40;94.08
62103;BME280;48077;48.104;11.702;2022-09-02T02:32:33;95545.97;;;9.39;93.98
62103;BME280;48077;48.104;11.702;2022-09-02T02:34:57;95536.97;;;9.40;93.86
62103;BME280;48077;48.104;11.702;2022-09-02T02:37:20;95541.69;;;9.38;93.48
62103;BME280;48077;48.104;11.702;2022-09-02T02:39:43;95518.69;;;9.25;93.41
62103;BME280;48077;48.104;11.702;2022-09-02T02:42:07;95550.91;;;9.35;92.63
62103;BME280;48077;48.104;11.702;2022-09-02T02:44:31;95534.22;;;9.28;92.41
62103;BME280;48077;48.104;11.702;2022-09-02T02:46:54;95536.41;;;9.31;92.13
62103;BME280;48077;48.104;11.702;2022-09-02T02:49:17;95538.16;;;9.25;91.80
62103;BME280;48077;48.104;11.702;2022-09-02T02:51:41;95539.03;;;9.19;91.62
62103;BME280;48077;48.104;11.702;2022-09-02T02:54:05;95540.59;;;9.08;91.03
62103;BME280;48077;48.104;11.702;2022-09-02T02:56:29;95542.13;;;8.98;90.74
62103;BME280;48077;48.104;11.702;2022-09-02T02:58:52;95530.66;;;8.79;91.66
62103;BME280;48077;48.104;11.702;2022-09-02T03:01:16;95539.09;;;8.76;91.74
62103;BME280;48077;48.104;11.702;2022-09-02T03:03:40;95533.25;;;8.67;91.97
62103;BME280;48077;48.104;11.702;2022-09-02T03:06:04;95530.63;;;8.60;91.82
62103;BME280;48077;48.104;11.702;2022-09-02T03:08:28;95534.16;;;8.54;92.26
62103;BME280;48077;48.104;11.702;2022-09-02T03:10:53;95524.63;;;8.46;92.58
62103;BME280;48077;48.104;11.702;2022-09-02T03:13:18;95527.75;;;8.37;92.67
62103;BME280;48077;48.104;11.702;2022-09-02T03:15:41;95524.94;;;8.31;93.16
62103;BME280;48077;48.104;11.702;2022-09-02T03:18:05;95505.78;;;8.23;93.81
62103;BME280;48077;48.104;11.702;2022-09-02T03:20:29;95518.06;;;8.24;93.90
62103;BME280;48077;48.104;11.702;2022-09-02T03:22:55;95520.72;;;8.24;93.62
62103;BME280;48077;48.104;11.702;2022-09-02T03:25:19;95516.00;;;8.26;93.93
62103;BME280;48077;48.104;11.702;2022-09-02T03:27:42;95518.66;;;8.26;94.04
62103;BME280;48077;48.104;11.702;2022-09-02T03:30:11;95512.94;;;8.22;93.95
62103;BME280;48077;48.104;11.702;2022-09-02T03:32:35;95517.91;;;8.19;93.92
62103;BME280;48077;48.104;11.702;2022-09-02T03:35:00;95514.84;;;8.15;93.48
62103;BME280;48077;48.104;11.702;2022-09-02T03:37:24;95475.81;;;7.90;93.39
62103;BME280;48077;48.104;11.702;2022-09-02T03:39:47;95518.38;;;8.09;93.58
62103;BME280;48077;48.104;11.702;2022-09-02T03:42:10;95516.72;;;8.08;93.55
62103;BME280;48077;48.104;11.702;2022-09-02T03:44:35;95513.72;;;8.04;93.89
62103;BME280;48077;48.104;11.702;2022-09-02T03:46:58;95512.53;;;8.00;93.56
62103;BME280;48077;48.104;11.702;2022-09-02T03:49:22;95513.75;;;7.98;93.62
62103;BME280;48077;48.104;11.702;2022-09-02T03:51:45;95502.56;;;7.89;93.86
62103;BME280;48077;48.104;11.702;2022-09-02T03:54:09;95503.97;;;7.91;93.38
62103;BME280;48077;48.104;11.702;2022-09-02T03:56:33;95504.44;;;7.88;93.30
62103;BME280;48077;48.104;11.702;2022-09-02T03:58:57;95504.28;;;7.83;93.42
62103;BME280;48077;48.104;11.702;2022-09-02T04:01:23;95495.91;;;7.80;93.50
62103;BME280;48077;48.104;11.702;2022-09-02T04:03:47;95505.72;;;7.79;93.17
62103;BME280;48077;48.104;11.702;2022-09-02T04:06:12;95495.13;;;7.73;93.34
62103;BME280;48077;48.104;11.702;2022-09-02T04:08:38;95498.88;;;7.65;93.72
62103;BME280;48077;48.104;11.702;2022-09-02T04:11:06;95499.88;;;7.64;93.70
62103;BME280;48077;48.104;11.702;2022-09-02T04:13:30;95497.44;;;7.62;94.06
62103;BME280;48077;48.104;11.702;2022-09-02T04:15:54;95484.88;;;7.51;93.65
62103;BME280;48077;48.104;11.702;2022-09-02T04:18:18;95508.09;;;7.56;93.00
62103;BME280;48077;48.104;11.702;2022-09-02T04:20:41;95490.25;;;7.38;93.42
62103;BME280;48077;48.104;11.702;2022-09-02T04:23:05;95512.22;;;7.52;93.88
62103;BME280;48077;48.104;11.702;2022-09-02T04:25:29;95500.03;;;7.44;94.01
62103;BME280;48077;48.104;11.702;2022-09-02T04:27:53;95510.41;;;7.45;94.13
62103;BME280;48077;48.104;11.702;2022-09-02T04:30:16;95508.19;;;7.42;94.02
62103;BME280;48077;48.104;11.702;2022-09-02T04:32:40;95499.19;;;7.43;94.56
62103;BME280;48077;48.104;11.702;2022-09-02T04:35:04;95507.94;;;7.50;94.25
62103;BME280;48077;48.104;11.702;2022-09-02T04:37:27;95514.25;;;7.49;93.87
62103;BME280;48077;48.104;11.702;2022-09-02T04:39:51;95503.03;;;7.47;94.08
62103;BME280;48077;48.104;11.702;2022-09-02T04:42:14;95499.41;;;7.42;94.02
62103;BME280;48077;48.104;11.702;2022-09-02T04:44:38;95505.53;;;7.42;94.49
62103;BME280;48077;48.104;11.702;2022-09-02T04:47:01;95507.97;;;7.44;94.29
62103;BME280;48077;48.104;11.702;2022-09-02T04:49:24;95515.34;;;7.42;94.03
62103;BME280;48077;48.104;11.702;2022-09-02T04:51:48;95512.28;;;7.38;93.95
62103;BME280;48077;48.104;11.702;2022-09-02T04:54:12;95516.78;;;7.38;94.08
62103;BME280;48077;48.104;11.702;2022-09-02T04:56:36;95516.34;;;7.41;94.24
62103;BME280;48077;48.104;11.702;2022-09-02T04:59:00;95508.19;;;7.42;94.45
62103;BME280;48077;48.104;11.702;2022-09-02T05:01:29;95512.69;;;7.42;93.85
62103;BME280;48077;48.104;11.702;2022-09-02T05:03:54;95517.75;;;7.43;94.42
62103;BME280;48077;48.104;11.702;2022-09-02T05:06:24;95512.03;;;7.46;94.45
62103;BME280;48077;48.104;11.702;2022-09-02T05:08:50;95516.09;;;7.49;94.63
62103;BME280;48077;48.104;11.702;2022-09-02T05:11:16;95512.81;;;7.54;94.74
62103;BME280;48077;48.104;11.702;2022-09-02T05:13:40;95507.91;;;7.57;95.09
62103;BME280;48077;48.104;11.702;2022-09-02T05:16:04;95502.72;;;7.69;94.84
62103;BME280;48077;48.104;11.702;2022-09-02T05:18:28;95518.56;;;7.82;94.27
62103;BME280;48077;48.104;11.702;2022-09-02T05:20:52;95515.06;;;7.88;93.65
62103;BME280;48077;48.104;11.702;2022-09-02T05:23:15;95515.66;;;7.90;93.74
62103;BME280;48077;48.104;11.702;2022-09-02T05:25:39;95512.94;;;7.97;93.02
62103;BME280;48077;48.104;11.702;2022-09-02T05:28:04;95519.91;;;7.98;92.99
62103;BME280;48077;48.104;11.702;2022-09-02T05:30:27;95515.81;;;7.96;93.17
62103;BME280;48077;48.104;11.702;2022-09-02T05:32:51;95517.41;;;8.03;93.07
62103;BME280;48077;48.104;11.702;2022-09-02T05:35:15;95519.78;;;8.11;93.11
62103;BME280;48077;48.104;11.702;2022-09-02T05:37:38;95518.47;;;8.21;94.34
62103;BME280;48077;48.104;11.702;2022-09-02T05:40:02;95519.19;;;8.35;95.78
62103;BME280;48077;48.104;11.702;2022-09-02T05:42:26;95515.63;;;8.47;96.81
62103;BME280;48077;48.104;11.702;2022-09-02T05:44:51;95520.00;;;8.60;96.49
62103;BME280;48077;48.104;11.702;2022-09-02T05:47:15;95514.19;;;8.70;96.53
62103;BME280;48077;48.104;11.702;2022-09-02T05:49:38;95517.31;;;8.85;96.71
62103;BME280;48077;48.104;11.702;2022-09-02T05:52:02;95515.31;;;8.99;96.58
62103;BME280;48077;48.104;11.702;2022-09-02T05:54:27;95514.13;;;9.14;97.52
62103;BME280;48077;48.104;11.702;2022-09-02T05:56:53;95511.53;;;9.25;98.10
62103;BME280;48077;48.104;11.702;2022-09-02T05:59:17;95505.66;;;9.35;98.65
62103;BME280;48077;48.104;11.702;2022-09-02T06:01:43;95521.97;;;9.57;99.12
62103;BME280;48077;48.104;11.702;2022-09-02T06:04:06;95514.03;;;9.69;100.00
62103;BME280;48077;48.104;11.702;2022-09-02T06:06:31;95511.53;;;9.86;99.78
62103;BME280;48077;48.104;11.702;2022-09-02T06:08:55;95506.91;;;9.93;100.00
62103;BME280;48077;48.104;11.702;2022-09-02T06:11:18;95508.47;;;10.12;100.00
62103;BME280;48077;48.104;11.702;2022-09-02T06:13:42;95514.28;;;10.21;100.00
62103;BME280;48077;48.104;11.702;2022-09-02T06:16:06;95506.16;;;10.28;100.00
62103;BME280;48077;48.104;11.702;2022-09-02T06:18:32;95500.91;;;10.40;100.00
62103;BME280;48077;48.104;11.702;2022-09-02T06:20:55;95499.97;;;10.46;100.00
62103;BME280;48077;48.104;11.702;2022-09-02T06:23:19;95510.16;;;10.61;100.00
62103;BME280;48077;48.104;11.702;2022-09-02T06:25:44;95504.81;;;10.72;99.45
62103;BME280;48077;48.104;11.702;2022-09-02T06:28:08;95499.13;;;10.81;99.35
62103;BME280;48077;48.104;11.702;2022-09-02T06:30:32;95496.09;;;10.89;98.37
62103;BME280;48077;48.104;11.702;2022-09-02T06:32:56;95489.00;;;11.06;98.27
62103;BME280;48077;48.104;11.702;2022-09-02T06:35:20;95505.78;;;11.19;97.62
62103;BME280;48077;48.104;11.702;2022-09-02T06:37:44;95510.44;;;11.23;97.70
62103;BME280;48077;48.104;11.702;2022-09-02T06:40:08;95506.81;;;11.29;97.49
62103;BME280;48077;48.104;11.702;2022-09-02T06:42:32;95494.63;;;11.33;97.06
62103;BME280;48077;48.104;11.702;2022-09-02T06:44:55;95503.41;;;11.46;96.41
62103;BME280;48077;48.104;11.702;2022-09-02T06:47:19;95500.34;;;11.54;96.28
62103;BME280;48077;48.104;11.702;2022-09-02T06:49:42;95502.63;;;11.62;95.96
62103;BME280;48077;48.104;11.702;2022-09-02T06:52:06;95499.69;;;11.75;94.77
62103;BME280;48077;48.104;11.702;2022-09-02T06:54:29;95499.53;;;11.82;94.78
62103;BME280;48077;48.104;11.702;2022-09-02T06:56:53;95484.88;;;11.85;94.23
62103;BME280;48077;48.104;11.702;2022-09-02T06:59:18;95498.28;;;12.02;93.81
62103;BME280;48077;48.104;11.702;2022-09-02T07:01:43;95501.13;;;12.12;92.96
62103;BME280;48077;48.104;11.702;2022-09-02T07:04:07;95506.09;;;12.20;92.66
62103;BME280;48077;48.104;11.702;2022-09-02T07:06:52;95499.53;;;12.28;91.52
62103;BME280;48077;48.104;11.702;2022-09-02T07:09:18;95512.25;;;12.38;90.64
62103;BME280;48077;48.104;11.702;2022-09-02T07:11:42;95509.19;;;12.46;90.77
62103;BME280;48077;48.104;11.702;2022-09-02T07:14:09;95505.50;;;12.52;90.53
62103;BME280;48077;48.104;11.702;2022-09-02T07:16:36;95502.69;;;12.59;90.29
62103;BME280;48077;48.104;11.702;2022-09-02T07:19:00;95503.56;;;12.64;89.63
62103;BME280;48077;48.104;11.702;2022-09-02T07:21:23;95506.88;;;12.71;88.71
62103;BME280;48077;48.104;11.702;2022-09-02T07:23:46;95511.81;;;12.80;88.60
62103;BME280;48077;48.104;11.702;2022-09-02T07:26:12;95506.53;;;12.85;87.10
62103;BME280;48077;48.104;11.702;2022-09-02T07:28:35;95506.91;;;12.93;86.39
62103;BME280;48077;48.104;11.702;2022-09-02T07:30:59;95508.03;;;12.98;85.78
62103;BME280;48077;48.104;11.702;2022-09-02T07:33:22;95506.31;;;13.08;85.61
62103;BME280;48077;48.104;11.702;2022-09-02T07:35:47;95506.44;;;13.19;84.32
62103;BME280;48077;48.104;11.702;2022-09-02T07:38:10;95500.63;;;13.27;82.33
62103;BME280;48077;48.104;11.702;2022-09-02T07:40:34;95508.19;;;13.52;80.15
62103;BME280;48077;48.104;11.702;2022-09-02T07:42:58;95504.47;;;13.53;79.99
62103;BME280;48077;48.104;11.702;2022-09-02T07:45:21;95501.00;;;13.52;80.35
62103;BME280;48077;48.104;11.702;2022-09-02T07:47:45;95502.13;;;13.56;79.99
62103;BME280;48077;48.104;11.702;2022-09-02T07:50:08;95496.25;;;13.60;79.53
62103;BME280;48077;48.104;11.702;2022-09-02T07:52:32;95498.47;;;13.68;78.74
62103;BME280;48077;48.104;11.702;2022-09-02T07:54:56;95491.31;;;13.73;78.77
62103;BME280;48077;48.104;11.702;2022-09-02T07:57:19;95500.00;;;13.86;77.70
62103;BME280;48077;48.104;11.702;2022-09-02T07:59:43;95487.75;;;13.95;77.86
62103;BME280;48077;48.104;11.702;2022-09-02T08:02:08;95504.75;;;14.06;77.52
62103;BME280;48077;48.104;11.702;2022-09-02T08:04:32;95484.16;;;14.11;76.64
62103;BME280;48077;48.104;11.702;2022-09-02T08:06:55;95493.34;;;14.21;76.50
62103;BME280;48077;48.104;11.702;2022-09-02T08:09:19;95494.28;;;14.36;74.67
62103;BME280;48077;48.104;11.702;2022-09-02T08:11:46;95493.00;;;14.44;73.79
62103;BME280;48077;48.104;11.702;2022-09-02T08:14:12;95490.97;;;14.56;72.47
62103;BME280;48077;48.104;11.702;2022-09-02T08:16:36;95491.81;;;14.62;71.23
62103;BME280;48077;48.104;11.702;2022-09-02T08:19:02;95492.34;;;14.64;71.23
62103;BME280;48077;48.104;11.702;2022-09-02T08:21:25;95500.53;;;14.80;70.80
62103;BME280;48077;48.104;11.702;2022-09-02T08:23:49;95492.25;;;14.86;70.54
62103;BME280;48077;48.104;11.702;2022-09-02T08:26:13;95495.22;;;14.90;70.34
62103;BME280;48077;48.104;11.702;2022-09-02T08:28:36;95495.53;;;14.98;69.62
62103;BME280;48077;48.104;11.702;2022-09-02T08:31:04;95499.63;;;15.11;69.36
62103;BME280;48077;48.104;11.702;2022-09-02T08:33:28;95490.56;;;15.28;65.75
62103;BME280;48077;48.104;11.702;2022-09-02T08:35:51;95492.50;;;15.43;63.71
62103;BME280;48077;48.104;11.702;2022-09-02T08:38:15;95489.09;;;15.63;62.50
62103;BME280;48077;48.104;11.702;2022-09-02T08:40:40;95480.41;;;15.45;63.82
62103;BME280;48077;48.104;11.702;2022-09-02T08:43:26;95485.03;;;15.55;63.17
62103;BME280;48077;48.104;11.702;2022-09-02T08:45:52;95485.28;;;15.53;63.74
62103;BME280;48077;48.104;11.702;2022-09-02T08:48:25;95481.25;;;15.51;64.29
62103;BME280;48077;48.104;11.702;2022-09-02T08:51:03;95486.13;;;15.59;64.07
62103;BME280;48077;48.104;11.702;2022-09-02T08:53:31;95480.78;;;15.69;61.92
62103;BME280;48077;48.104;11.702;2022-09-02T08:55:58;95481.38;;;15.82;62.73
62103;BME280;48077;48.104;11.702;2022-09-02T08:58:24;95476.00;;;15.97;60.70
62103;BME280;48077;48.104;11.702;2022-09-02T09:09:27;95475.50;;;16.51;60.64
62103;BME280;48077;48.104;11.702;2022-09-02T09:15:02;95478.44;;;16.81;60.12
62103;BME280;48077;48.104;11.702;2022-09-02T09:17:41;95474.91;;;16.95;59.84
62103;BME280;48077;48.104;11.702;2022-09-02T09:20:17;95483.78;;;17.06;59.58
62103;BME280;48077;48.104;11.702;2022-09-02T09:22:42;95470.03;;;17.08;58.68
62103;BME280;48077;48.104;11.702;2022-09-02T09:25:11;95478.34;;;17.16;59.30
62103;BME280;48077;48.104;11.702;2022-09-02T09:27:36;95470.53;;;17.25;58.88
62103;BME280;48077;48.104;11.702;2022-09-02T09:29:59;95464.56;;;17.33;58.43
62103;BME280;48077;48.104;11.702;2022-09-02T09:32:31;95459.94;;;17.44;58.07
62103;BME280;48077;48.104;11.702;2022-09-02T09:37:28;95461.50;;;17.55;57.77
62103;BME280;48077;48.104;11.702;2022-09-02T09:39:52;95462.22;;;17.71;58.08
62103;BME280;48077;48.104;11.702;2022-09-02T09:42:29;95457.56;;;17.82;55.27
62103;BME280;48077;48.104;11.702;2022-09-02T09:44:53;95461.88;;;17.88;55.82
62103;BME280;48077;48.104;11.702;2022-09-02T09:47:19;95452.41;;;17.96;55.47
62103;BME280;48077;48.104;11.702;2022-09-02T09:49:42;95460.09;;;18.13;55.07
62103;BME280;48077;48.104;11.702;2022-09-02T09:52:06;95440.00;;;18.29;55.12
62103;BME280;48077;48.104;11.702;2022-09-02T09:54:30;95448.25;;;18.43;54.24
62103;BME280;48077;48.104;11.702;2022-09-02T09:56:54;95444.38;;;18.54;53.38
62103;BME280;48077;48.104;11.702;2022-09-02T09:59:37;95444.22;;;18.70;52.45
62103;BME280;48077;48.104;11.702;2022-09-02T10:02:02;95444.09;;;18.85;52.51
62103;BME280;48077;48.104;11.702;2022-09-02T10:04:30;95444.81;;;18.96;50.78
62103;BME280;48077;48.104;11.702;2022-09-02T10:06:54;95449.28;;;19.06;50.78
62103;BME280;48077;48.104;11.702;2022-09-02T10:11:55;95433.97;;;19.20;47.68
62103;BME280;48077;48.104;11.702;2022-09-02T10:14:19;95445.31;;;19.22;47.55
62103;BME280;48077;48.104;11.702;2022-09-02T10:17:05;95437.06;;;19.08;49.46
62103;BME280;48077;48.104;11.702;2022-09-02T10:19:58;95449.31;;;19.25;47.85
62103;BME280;48077;48.104;11.702;2022-09-02T10:22:43;95443.63;;;19.26;48.34
62103;BME280;48077;48.104;11.702;2022-09-02T10:25:26;95440.66;;;19.28;47.09
62103;BME280;48077;48.104;11.702;2022-09-02T10:30:30;95440.44;;;19.43;47.62
62103;BME280;48077;48.104;11.702;2022-09-02T10:33:23;95438.22;;;19.50;47.47
62103;BME280;48077;48.104;11.702;2022-09-02T10:36:10;95442.84;;;19.69;47.87
62103;BME280;48077;48.104;11.702;2022-09-02T10:38:41;95441.34;;;19.81;47.08
62103;BME280;48077;48.104;11.702;2022-09-02T10:43:48;95434.00;;;20.01;47.03
62103;BME280;48077;48.104;11.702;2022-09-02T10:46:17;95436.56;;;20.11;45.05
62103;BME280;48077;48.104;11.702;2022-09-02T10:48:59;95435.94;;;20.14;43.41
62103;BME280;48077;48.104;11.702;2022-09-02T10:51:44;95432.97;;;20.16;44.36
62103;BME280;48077;48.104;11.702;2022-09-02T10:57:04;95422.50;;;20.09;44.73
62103;BME280;48077;48.104;11.702;2022-09-02T10:59:36;95403.47;;;20.14;45.80
62103;BME280;48077;48.104;11.702;2022-09-02T11:02:24;95419.47;;;20.30;44.01
62103;BME280;48077;48.104;11.702;2022-09-02T11:04:53;95409.34;;;20.35;44.54
62103;BME280;48077;48.104;11.702;2022-09-02T11:07:20;95411.19;;;20.54;43.15
62103;BME280;48077;48.104;11.702;2022-09-02T11:09:58;95409.06;;;20.70;43.27
62103;BME280;48077;48.104;11.702;2022-09-02T11:12:40;95400.03;;;21.02;43.44
62103;BME280;48077;48.104;11.702;2022-09-02T11:17:50;95395.00;;;21.37;43.00
62103;BME280;48077;48.104;11.702;2022-09-02T11:26:07;95403.78;;;21.84;39.94
62103;BME280;48077;48.104;11.702;2022-09-02T11:28:54;95406.53;;;22.07;39.27
62103;BME280;48077;48.104;11.702;2022-09-02T11:31:34;95402.09;;;22.11;39.70
62103;BME280;48077;48.104;11.702;2022-09-02T11:34:09;95394.59;;;22.16;39.71
62103;BME280;48077;48.104;11.702;2022-09-02T11:36:38;95389.38;;;22.42;39.39
62103;BME280;48077;48.104;11.702;2022-09-02T11:39:08;95386.63;;;22.65;38.56
62103;BME280;48077;48.104;11.702;2022-09-02T11:44:52;95391.56;;;22.94;38.36
62103;BME280;48077;48.104;11.702;2022-09-02T11:58:37;95383.34;;;23.92;35.25
62103;BME280;48077;48.104;11.702;2022-09-02T12:03:36;95365.38;;;23.99;35.86
62103;BME280;48077;48.104;11.702;2022-09-02T12:06:12;95377.53;;;24.28;35.57
62103;BME280;48077;48.104;11.702;2022-09-02T12:08:57;95378.78;;;24.39;36.92
62103;BME280;48077;48.104;11.702;2022-09-02T12:11:40;95367.56;;;24.58;35.78
62103;BME280;48077;48.104;11.702;2022-09-02T12:17:07;95376.28;;;24.17;36.32
62103;BME280;48077;48.104;11.702;2022-09-02T12:22:23;95381.66;;;24.43;37.63
62103;BME280;48077;48.104;11.702;2022-09-02T12:24:54;95369.81;;;24.39;36.73
62103;BME280;48077;48.104;11.702;2022-09-02T12:29:44;95376.63;;;24.80;36.74
62103;BME280;48077;48.104;11.702;2022-09-02T12:32:08;95375.59;;;24.93;35.81
62103;BME280;48077;48.104;11.702;2022-09-02T12:37:01;95369.03;;;25.33;35.20
62103;BME280;48077;48.104;11.702;2022-09-02T12:52:42;95362.41;;;25.63;33.23
62103;BME280;48077;48.104;11.702;2022-09-02T12:55:17;95362.91;;;25.36;34.56
62103;BME280;48077;48.104;11.702;2022-09-02T12:57:44;95364.97;;;25.39;34.71
62103;BME280;48077;48.104;11.702;2022-09-02T13:00:24;95354.44;;;25.58;33.82
62103;BME280;48077;48.104;11.702;2022-09-02T13:03:06;95364.34;;;25.63;35.20
62103;BME280;48077;48.104;11.702;2022-09-02T13:05:52;95351.94;;;25.44;34.67
62103;BME280;48077;48.104;11.702;2022-09-02T13:08:38;95352.13;;;25.39;34.10
62103;BME280;48077;48.104;11.702;2022-09-02T13:16:37;95349.06;;;25.83;35.29
62103;BME280;48077;48.104;11.702;2022-09-02T13:19:21;95352.13;;;25.90;34.18
62103;BME280;48077;48.104;11.702;2022-09-02T13:30:10;95338.56;;;26.60;33.57
62103;BME280;48077;48.104;11.702;2022-09-02T13:32:35;95338.06;;;26.34;33.37
62103;BME280;48077;48.104;11.702;2022-09-02T13:35:03;95330.88;;;26.41;32.89
62103;BME280;48077;48.104;11.702;2022-09-02T13:37:36;95326.72;;;26.56;32.34
62103;BME280;48077;48.104;11.702;2022-09-02T13:40:04;95330.19;;;26.78;32.63
62103;BME280;48077;48.104;11.702;2022-09-02T13:42:29;95324.84;;;26.81;33.76
62103;BME280;48077;48.104;11.702;2022-09-02T13:45:16;95323.94;;;26.90;33.17
62103;BME280;48077;48.104;11.702;2022-09-02T13:47:45;95325.38;;;26.75;32.20
62103;BME280;48077;48.104;11.702;2022-09-02T13:50:13;95327.56;;;26.69;31.05
62103;BME280;48077;48.104;11.702;2022-09-02T13:52:39;95323.81;;;26.40;32.01
62103;BME280;48077;48.104;11.702;2022-09-02T13:55:04;95335.00;;;26.14;33.39
62103;BME280;48077;48.104;11.702;2022-09-02T13:57:28;95338.16;;;26.25;33.20
62103;BME280;48077;48.104;11.702;2022-09-02T13:59:54;95327.94;;;26.47;32.69
62103;BME280;48077;48.104;11.702;2022-09-02T14:04:55;95322.34;;;26.43;33.13
62103;BME280;48077;48.104;11.702;2022-09-02T14:07:27;95321.56;;;26.42;32.09
62103;BME280;48077;48.104;11.702;2022-09-02T14:09:52;95313.22;;;26.39;32.89
62103;BME280;48077;48.104;11.702;2022-09-02T14:12:16;95317.44;;;26.36;32.38
62103;BME280;48077;48.104;11.702;2022-09-02T14:14:40;95309.69;;;26.38;31.82
62103;BME280;48077;48.104;11.702;2022-09-02T14:17:25;95311.63;;;26.38;32.03
62103;BME280;48077;48.104;11.702;2022-09-02T14:19:50;95300.25;;;26.36;32.19
62103;BME280;48077;48.104;11.702;2022-09-02T14:22:26;95293.06;;;26.43;33.66
62103;BME280;48077;48.104;11.702;2022-09-02T14:24:49;95303.72;;;26.57;33.47